createdAt,value
2019-04-05T00:00:50.530Z,50.16
2019-04-05T00:03:21.852Z,50.47
2019-04-05T00:05:54.293Z,50.66
2019-04-05T00:08:25.640Z,51.03
2019-04-05T00:10:56.912Z,51.00
2019-04-05T00:13:28.251Z,51.06
2019-04-05T00:15:59.593Z,50.59
2019-04-05T00:18:30.953Z,50.31
2019-04-05T00:21:02.384Z,50.09
2019-04-05T00:23:33.717Z,50.30
2019-04-05T00:26:05.019Z,50.39
2019-04-05T00:28:36.414Z,50.90
2019-04-05T00:31:07.733Z,50.63
2019-04-05T00:33:39.105Z,51.91
2019-04-05T00:36:10.459Z,51.37
2019-04-05T00:38:41.817Z,50.61
2019-04-05T00:41:13.225Z,50.84
2019-04-05T00:43:44.696Z,51.53
2019-04-05T00:46:16.043Z,52.50
2019-04-05T00:48:47.383Z,54.33
2019-04-05T00:51:18.651Z,53.45
2019-04-05T00:53:50.004Z,53.20
2019-04-05T00:56:21.376Z,51.51
2019-04-05T00:58:52.655Z,51.26
2019-04-05T01:01:24.486Z,51.12
2019-04-05T01:03:55.834Z,51.22
2019-04-05T01:06:28.458Z,50.85
2019-04-05T01:09:00.817Z,50.49
2019-04-05T01:11:32.088Z,50.48
2019-04-05T01:14:03.179Z,50.57
2019-04-05T01:16:34.531Z,49.98
2019-04-05T01:19:05.864Z,49.41
2019-04-05T01:21:39.941Z,49.74
2019-04-05T01:24:11.363Z,49.74
2019-04-05T01:26:43.227Z,49.94
2019-04-05T01:29:14.511Z,50.59
2019-04-05T01:31:45.868Z,50.79
2019-04-05T01:34:17.284Z,51.49
2019-04-05T01:36:48.567Z,51.62
2019-04-05T01:39:19.898Z,51.95
2019-04-05T01:41:51.289Z,51.71
2019-04-05T01:44:22.658Z,51.57
2019-04-05T01:46:54.011Z,51.21
2019-04-05T01:49:25.382Z,51.08
2019-04-05T01:51:56.746Z,51.45
2019-04-05T01:54:29.302Z,50.88
2019-04-05T01:57:00.806Z,50.47
2019-04-05T01:59:32.148Z,49.73
2019-04-05T02:02:03.535Z,50.66
2019-04-05T02:04:35.995Z,49.86
2019-04-05T02:07:07.391Z,49.65
2019-04-05T02:09:38.760Z,50.05
2019-04-05T02:12:10.074Z,50.04
2019-04-05T02:14:41.465Z,49.86
2019-04-05T02:17:12.829Z,49.60
2019-04-05T02:19:44.170Z,49.40
2019-04-05T02:22:15.635Z,49.72
2019-04-05T02:24:46.902Z,49.31
2019-04-05T02:27:18.296Z,49.47
2019-04-05T02:29:49.664Z,49.68
2019-04-05T02:32:21.141Z,49.33
2019-04-05T02:34:52.677Z,49.15
2019-04-05T02:37:23.956Z,48.70
2019-04-05T02:39:55.290Z,49.24
2019-04-05T02:42:26.595Z,49.81
2019-04-05T02:44:57.850Z,49.72
2019-04-05T02:47:29.194Z,49.69
2019-04-05T02:50:00.535Z,50.40
2019-04-05T02:52:31.854Z,49.98
2019-04-05T02:55:03.232Z,49.90
2019-04-05T02:57:34.531Z,49.78
2019-04-05T03:00:05.921Z,50.31
2019-04-05T03:02:37.394Z,51.03
2019-04-05T03:05:08.768Z,50.47
2019-04-05T03:07:40.089Z,50.79
2019-04-05T03:10:14.570Z,51.16
2019-04-05T03:12:45.970Z,51.62
2019-04-05T03:15:17.333Z,51.14
2019-04-05T03:17:48.641Z,51.35
2019-04-05T03:20:20.001Z,51.33
2019-04-05T03:22:51.341Z,51.19
2019-04-05T03:25:22.702Z,51.11
2019-04-05T03:27:54.062Z,50.79
2019-04-05T03:30:25.422Z,52.93
2019-04-05T03:32:56.804Z,53.32
2019-04-05T03:35:28.279Z,51.72
2019-04-05T03:37:59.601Z,51.06
2019-04-05T03:40:30.963Z,51.99
2019-04-05T03:43:02.366Z,51.62
2019-04-05T03:45:33.757Z,52.25
2019-04-05T03:48:05.152Z,52.56
2019-04-05T03:50:36.573Z,51.52
2019-04-05T03:53:07.920Z,52.20
2019-04-05T03:55:39.256Z,51.58
2019-04-05T03:58:10.603Z,51.97
2019-04-05T04:00:42.112Z,52.22
2019-04-05T04:03:13.538Z,51.13
2019-04-05T04:05:44.838Z,51.07
2019-04-05T04:08:16.231Z,51.22
2019-04-05T04:10:48.801Z,50.49
2019-04-05T04:13:20.151Z,50.78
2019-04-05T04:15:51.918Z,50.16
2019-04-05T04:18:23.311Z,49.60
2019-04-05T04:20:57.785Z,48.51
2019-04-05T04:23:30.037Z,48.33
2019-04-05T04:26:01.405Z,48.87
2019-04-05T04:28:32.800Z,50.89
2019-04-05T04:31:04.104Z,50.51
2019-04-05T04:33:36.463Z,50.43
2019-04-05T04:36:07.867Z,50.07
2019-04-05T04:38:39.556Z,50.01
2019-04-05T04:41:10.980Z,49.71
2019-04-05T04:43:42.359Z,49.30
2019-04-05T04:46:13.874Z,48.36
2019-04-05T04:48:45.269Z,47.71
2019-04-05T04:51:16.826Z,45.86
2019-04-05T04:53:48.175Z,45.26
2019-04-05T04:56:19.518Z,45.12
2019-04-05T04:58:50.871Z,44.33
2019-04-05T05:01:22.115Z,41.55
2019-04-05T05:03:53.603Z,42.74
2019-04-05T05:06:24.961Z,43.62
2019-04-05T05:08:57.309Z,42.18
2019-04-05T05:11:28.755Z,42.58
2019-04-05T05:14:00.100Z,37.64
2019-04-05T05:16:31.365Z,41.32
2019-04-05T05:19:02.696Z,40.89
2019-04-05T05:21:34.064Z,41.32
2019-04-05T05:24:05.434Z,41.29
2019-04-05T05:26:36.757Z,39.74
2019-04-05T05:29:08.178Z,38.33
2019-04-05T05:31:39.551Z,37.32
2019-04-05T05:34:10.978Z,39.31
2019-04-05T05:36:42.729Z,39.33
2019-04-05T05:39:14.541Z,39.43
2019-04-05T05:41:45.920Z,38.02
2019-04-05T05:44:17.411Z,38.39
2019-04-05T05:46:48.884Z,36.89
2019-04-05T05:49:20.372Z,36.68
2019-04-05T05:51:51.853Z,35.75
2019-04-05T05:54:23.169Z,34.26
2019-04-05T05:56:54.582Z,34.26
2019-04-05T05:59:29.663Z,33.57
2019-04-05T06:01:59.021Z,32.08
2019-04-05T06:04:31.488Z,33.36
2019-04-05T06:07:02.830Z,31.99
2019-04-05T06:09:34.234Z,32.25
2019-04-05T06:12:05.617Z,31.52
2019-04-05T06:14:37.005Z,32.48
2019-04-05T06:17:08.376Z,30.88
2019-04-05T06:19:39.739Z,30.57
2019-04-05T06:22:11.092Z,31.72
2019-04-05T06:24:42.491Z,30.73
2019-04-05T06:27:13.908Z,31.66
2019-04-05T06:29:45.291Z,30.32
2019-04-05T06:32:16.650Z,30.61
2019-04-05T06:34:47.945Z,30.80
2019-04-05T06:37:19.351Z,30.23
2019-04-05T06:39:50.768Z,30.10
2019-04-05T06:42:22.117Z,30.91
2019-04-05T06:44:53.453Z,28.47
2019-04-05T06:47:24.774Z,29.89
2019-04-05T06:49:56.033Z,30.18
2019-04-05T06:52:27.576Z,29.59
2019-04-05T06:54:58.950Z,29.66
2019-04-05T06:57:30.224Z,30.09
2019-04-05T07:00:01.417Z,28.88
2019-04-05T07:02:32.923Z,28.26
2019-04-05T07:05:05.470Z,27.57
2019-04-05T07:07:36.748Z,27.99
2019-04-05T07:10:08.100Z,28.57
2019-04-05T07:12:41.052Z,27.77
2019-04-05T07:15:12.403Z,27.88
2019-04-05T07:17:43.773Z,28.50
2019-04-05T07:20:15.123Z,27.20
2019-04-05T07:22:46.426Z,27.37
2019-04-05T07:25:17.772Z,27.16
2019-04-05T07:27:49.137Z,27.44
2019-04-05T07:30:21.574Z,28.15
2019-04-05T07:32:52.997Z,27.23
2019-04-05T07:35:33.404Z,27.13
2019-04-05T07:37:57.429Z,26.90
2019-04-05T07:40:28.790Z,26.41
2019-04-05T07:43:00.176Z,26.52
2019-04-05T07:45:31.537Z,28.00
2019-04-05T07:48:02.898Z,25.73
2019-04-05T07:50:34.328Z,26.06
2019-04-05T07:53:05.695Z,25.35
2019-04-05T07:55:36.944Z,25.23
2019-04-05T07:58:08.281Z,25.57
2019-04-05T08:00:48.615Z,26.54
2019-04-05T08:03:20.555Z,25.82
2019-04-05T08:05:51.992Z,24.85
2019-04-05T08:08:44.370Z,25.16
2019-04-05T08:11:17.481Z,23.63
2019-04-05T08:13:48.495Z,23.70
2019-04-05T08:16:19.629Z,23.27
2019-04-05T08:18:57.677Z,22.50
2019-04-05T08:21:24.209Z,22.61
2019-04-05T08:23:55.538Z,22.68
2019-04-05T08:26:28.006Z,21.51
2019-04-05T08:28:59.389Z,21.41
2019-04-05T08:31:30.738Z,21.65
2019-04-05T08:34:02.180Z,21.56
2019-04-05T08:36:33.439Z,21.75
2019-04-05T08:39:07.532Z,21.74
2019-04-05T08:41:38.867Z,22.08
2019-04-05T08:44:10.060Z,21.34
2019-04-05T08:46:41.394Z,21.60
2019-04-05T08:49:12.790Z,23.37
2019-04-05T08:51:44.135Z,22.31
2019-04-05T08:54:15.493Z,22.75
2019-04-05T08:56:46.860Z,22.73
2019-04-05T08:59:18.285Z,22.82
2019-04-05T09:01:49.605Z,21.93
2019-04-05T09:04:21.015Z,22.12
2019-04-05T09:06:52.296Z,21.92
2019-04-05T09:09:23.646Z,22.29
2019-04-05T09:11:55.045Z,21.42
2019-04-05T09:14:26.415Z,22.28
2019-04-05T09:16:57.796Z,22.66
2019-04-05T09:19:29.144Z,22.80
2019-04-05T09:22:00.666Z,23.19
2019-04-05T09:24:32.051Z,23.28
2019-04-05T09:27:03.395Z,22.36
2019-04-05T09:29:34.776Z,22.94
2019-04-05T09:32:06.154Z,22.59
2019-04-05T09:34:37.527Z,22.53
2019-04-05T09:37:09.902Z,21.68
2019-04-05T09:39:41.297Z,21.53
2019-04-05T09:42:12.658Z,21.92
2019-04-05T09:44:44.013Z,21.30
2019-04-05T09:47:15.361Z,21.33
2019-04-05T09:49:46.776Z,21.45
2019-04-05T09:52:18.155Z,22.13
2019-04-05T09:54:49.519Z,21.50
2019-04-05T09:57:20.882Z,21.34
2019-04-05T09:59:52.239Z,21.10
2019-04-05T10:02:23.591Z,21.64
2019-04-05T10:04:54.959Z,21.34
2019-04-05T10:07:26.327Z,21.38
2019-04-05T10:09:57.698Z,21.80
2019-04-05T10:12:29.058Z,21.24
2019-04-05T10:15:00.381Z,21.58
2019-04-05T10:17:33.023Z,21.33
2019-04-05T10:20:06.772Z,21.31
2019-04-05T10:22:38.085Z,21.56
2019-04-05T10:25:09.445Z,21.79
2019-04-05T10:27:40.737Z,21.94
2019-04-05T10:30:12.282Z,21.85
2019-04-05T10:32:46.077Z,22.01
2019-04-05T10:35:16.724Z,21.97
2019-04-05T10:37:48.020Z,23.47
2019-04-05T10:40:19.977Z,21.72
2019-04-05T10:42:51.363Z,21.67
2019-04-05T10:45:22.641Z,22.53
2019-04-05T10:47:53.955Z,22.03
2019-04-05T10:50:25.309Z,21.41
2019-04-05T10:52:56.621Z,22.01
2019-04-05T10:55:28.001Z,22.50
2019-04-05T10:57:59.399Z,22.30
2019-04-05T11:00:30.694Z,21.22
2019-04-05T11:03:02.041Z,21.27
2019-04-05T11:05:33.423Z,21.33
2019-04-05T11:08:04.933Z,21.54
2019-04-05T11:10:36.313Z,21.38
2019-04-05T11:13:07.676Z,21.05
2019-04-05T11:15:39.028Z,21.04
2019-04-05T11:18:10.436Z,21.13
2019-04-05T11:20:41.802Z,20.86
2019-04-05T11:23:13.200Z,20.54
2019-04-05T11:25:44.558Z,19.66
2019-04-05T11:28:15.914Z,20.38
2019-04-05T11:30:47.302Z,20.96
2019-04-05T11:33:19.878Z,20.93
2019-04-05T11:35:52.668Z,20.69
2019-04-05T11:38:24.528Z,21.89
2019-04-05T11:40:56.162Z,20.52
2019-04-05T11:43:31.137Z,20.60
2019-04-05T11:46:01.008Z,21.21
2019-04-05T11:48:32.364Z,21.91
2019-04-05T11:51:03.732Z,21.69
2019-04-05T11:53:35.144Z,21.80
2019-04-05T11:56:14.626Z,21.39
2019-04-05T11:58:41.133Z,21.75
2019-04-05T12:01:14.061Z,21.73
2019-04-05T12:03:45.414Z,21.29
2019-04-05T12:06:18.094Z,20.61
2019-04-05T12:08:50.708Z,20.51
2019-04-05T12:11:22.114Z,21.24
2019-04-05T12:13:53.544Z,21.20
2019-04-05T12:16:24.863Z,21.72
2019-04-05T12:18:58.756Z,20.32
2019-04-05T12:21:29.269Z,19.99
2019-04-05T12:24:02.562Z,20.40
2019-04-05T12:26:34.488Z,19.60
2019-04-05T12:29:06.386Z,20.77
2019-04-05T12:31:37.767Z,21.09
2019-04-05T12:34:09.172Z,21.30
2019-04-05T12:36:40.517Z,21.44
2019-04-05T12:39:11.863Z,21.37
2019-04-05T12:41:44.875Z,21.43
2019-04-05T12:44:16.272Z,21.67
2019-04-05T12:46:47.646Z,21.73
2019-04-05T12:49:18.995Z,21.54
2019-04-05T12:51:50.276Z,21.68
2019-04-05T12:54:22.637Z,21.33
2019-04-05T12:56:54.341Z,21.30
2019-04-05T12:59:26.775Z,22.01
2019-04-05T13:01:59.653Z,21.81
2019-04-05T13:04:31.193Z,21.60
2019-04-05T13:07:02.549Z,22.68
2019-04-05T13:09:33.917Z,21.02
2019-04-05T13:12:05.326Z,21.07
2019-04-05T13:14:36.680Z,20.75
2019-04-05T13:17:09.076Z,21.66
2019-04-05T13:19:40.420Z,21.34
2019-04-05T13:22:11.771Z,20.88
2019-04-05T13:24:43.064Z,21.01
2019-04-05T13:27:14.406Z,20.63
2019-04-05T13:29:47.332Z,20.90
2019-04-05T13:32:21.557Z,20.90
2019-04-05T13:34:55.374Z,20.25
2019-04-05T13:37:24.868Z,20.71
2019-04-05T13:39:57.674Z,21.29
2019-04-05T13:42:31.221Z,21.09
2019-04-05T13:45:02.512Z,21.46
2019-04-05T13:47:37.958Z,20.93
2019-04-05T13:50:10.922Z,21.25
2019-04-05T13:52:42.158Z,20.14
2019-04-05T13:55:13.621Z,19.96
2019-04-05T13:57:44.991Z,20.42
2019-04-05T14:00:18.326Z,21.06
2019-04-05T14:02:50.771Z,21.49
2019-04-05T14:05:22.899Z,20.23
2019-04-05T14:08:09.154Z,20.22
2019-04-05T14:10:27.262Z,20.64
2019-04-05T14:12:59.716Z,20.45
2019-04-05T14:15:31.524Z,21.82
2019-04-05T14:18:03.261Z,20.74
2019-04-05T14:20:34.619Z,21.23
2019-04-05T14:23:05.949Z,21.50
2019-04-05T14:25:37.296Z,22.19
2019-04-05T14:28:08.664Z,22.39
2019-04-05T14:30:39.962Z,21.92
2019-04-05T14:33:11.389Z,21.54
2019-04-05T14:35:42.712Z,21.74
2019-04-05T14:38:14.090Z,21.40
2019-04-05T14:40:45.460Z,21.56
2019-04-05T14:43:16.825Z,21.93
2019-04-05T14:45:48.194Z,22.08
2019-04-05T14:48:19.549Z,22.38
2019-04-05T14:50:50.864Z,22.21
2019-04-05T14:53:23.203Z,22.34
2019-04-05T14:55:54.584Z,22.49
2019-04-05T14:58:25.966Z,22.00
2019-04-05T15:00:57.329Z,22.00
2019-04-05T15:03:28.715Z,22.33
2019-04-05T15:06:01.048Z,22.26
2019-04-05T15:08:32.404Z,22.77
2019-04-05T15:11:03.750Z,22.33
2019-04-05T15:13:35.135Z,22.91
2019-04-05T15:16:06.540Z,22.41
2019-04-05T15:18:37.901Z,22.68
2019-04-05T15:21:09.290Z,22.57
2019-04-05T15:23:41.375Z,23.21
2019-04-05T15:26:12.977Z,22.85
2019-04-05T15:28:44.324Z,23.11
2019-04-05T15:31:15.738Z,23.07
2019-04-05T15:33:47.065Z,23.57
2019-04-05T15:36:18.453Z,23.37
2019-04-05T15:38:49.737Z,23.44
2019-04-05T15:41:21.193Z,23.44
2019-04-05T15:43:52.461Z,23.81
2019-04-05T15:46:23.807Z,23.94
2019-04-05T15:48:55.178Z,23.37
2019-04-05T15:51:26.575Z,24.25
2019-04-05T15:54:01.132Z,24.43
2019-04-05T15:56:33.262Z,24.42
2019-04-05T15:59:04.843Z,24.83
2019-04-05T16:01:36.369Z,25.19
2019-04-05T16:04:07.688Z,25.42
2019-04-05T16:06:39.296Z,25.72
2019-04-05T16:09:13.211Z,25.44
2019-04-05T16:11:44.690Z,26.15
2019-04-05T16:14:16.035Z,25.78
2019-04-05T16:16:47.539Z,26.35
2019-04-05T16:19:18.905Z,26.63
2019-04-05T16:21:50.272Z,26.60
2019-04-05T16:24:21.625Z,26.70
2019-04-05T16:26:53.023Z,27.59
2019-04-05T16:29:24.351Z,27.36
2019-04-05T16:31:55.678Z,27.88
2019-04-05T16:34:27.034Z,28.11
2019-04-05T16:36:58.302Z,27.94
2019-04-05T16:39:29.628Z,28.64
2019-04-05T16:42:01.008Z,28.45
2019-04-05T16:44:32.372Z,28.69
2019-04-05T16:47:03.770Z,29.38
2019-04-05T16:49:35.190Z,29.64
2019-04-05T16:52:06.725Z,29.41
2019-04-05T16:54:38.085Z,29.66
2019-04-05T16:57:10.429Z,30.21
2019-04-05T16:59:41.778Z,30.85
2019-04-05T17:02:13.079Z,30.63
2019-04-05T17:04:46.013Z,31.20
2019-04-05T17:07:17.396Z,32.17
2019-04-05T17:09:48.757Z,32.20
2019-04-05T17:12:21.670Z,32.47
2019-04-05T17:14:54.262Z,33.07
2019-04-05T17:17:25.559Z,33.58
2019-04-05T17:19:56.950Z,33.00
2019-04-05T17:22:28.337Z,33.94
2019-04-05T17:24:59.705Z,33.69
2019-04-05T17:27:31.025Z,33.36
2019-04-05T17:30:03.959Z,33.69
2019-04-05T17:32:35.572Z,33.98
2019-04-05T17:35:07.684Z,33.57
2019-04-05T17:37:39.039Z,34.52
2019-04-05T17:40:11.409Z,34.36
2019-04-05T17:42:42.758Z,34.73
2019-04-05T17:45:14.099Z,34.76
2019-04-05T17:47:45.454Z,34.77
2019-04-05T17:50:19.969Z,34.54
2019-04-05T17:52:51.314Z,35.00
2019-04-05T17:55:22.691Z,35.11
2019-04-05T17:57:54.041Z,35.56
2019-04-05T18:00:26.316Z,36.03
2019-04-05T18:02:57.701Z,36.20
2019-04-05T18:05:29.085Z,36.26
2019-04-05T18:08:00.344Z,36.23
2019-04-05T18:10:31.704Z,36.30
2019-04-05T18:13:03.216Z,36.99
2019-04-05T18:15:34.477Z,37.23
2019-04-05T18:18:05.906Z,37.03
2019-04-05T18:20:37.282Z,37.35
2019-04-05T18:23:08.647Z,37.79
2019-04-05T18:25:39.995Z,38.24
2019-04-05T18:28:11.348Z,38.55
2019-04-05T18:30:42.719Z,38.62
2019-04-05T18:33:14.058Z,38.36
2019-04-05T18:35:45.442Z,38.47
2019-04-05T18:38:18.007Z,38.15
2019-04-05T18:40:49.771Z,38.51
2019-04-05T18:43:21.170Z,38.32
2019-04-05T18:45:52.575Z,38.90
2019-04-05T18:48:23.945Z,38.53
2019-04-05T18:50:55.749Z,38.77
2019-04-05T18:53:37.167Z,38.65
2019-04-05T18:56:00.174Z,39.22
2019-04-05T18:58:31.534Z,39.30
2019-04-05T19:01:02.819Z,39.14
2019-04-05T19:03:35.281Z,39.63
2019-04-05T19:06:06.654Z,40.38
2019-04-05T19:08:39.890Z,40.53
2019-04-05T19:11:11.187Z,40.71
2019-04-05T19:13:42.601Z,40.78
2019-04-05T19:16:13.999Z,41.18
2019-04-05T19:18:45.320Z,41.71
2019-04-05T19:21:16.678Z,41.39
2019-04-05T19:23:51.128Z,41.02
2019-04-05T19:26:21.091Z,41.43
2019-04-05T19:28:52.404Z,41.26
2019-04-05T19:49:18.679Z,42.15
2019-04-05T19:51:50.035Z,42.06
2019-04-05T19:54:21.457Z,42.13
2019-04-05T19:56:52.817Z,42.09
2019-04-05T19:59:24.169Z,42.25
2019-04-05T20:01:55.529Z,43.35
2019-04-05T20:04:26.915Z,43.75
2019-04-05T20:06:59.368Z,43.74
2019-04-05T20:09:30.749Z,44.37
2019-04-05T20:12:02.099Z,43.31
2019-04-05T20:14:33.472Z,43.51
2019-04-05T20:17:04.802Z,42.36
2019-04-05T20:19:36.174Z,42.74
2019-04-05T20:22:07.499Z,42.74
2019-04-05T20:24:38.838Z,42.97
2019-04-05T20:27:10.252Z,42.92
2019-04-05T20:29:41.880Z,43.77
2019-04-05T20:32:13.225Z,43.68
2019-04-05T20:34:44.574Z,43.94
2019-04-05T20:37:15.889Z,43.54
2019-04-05T20:39:47.272Z,42.99
2019-04-05T20:42:18.621Z,43.00
2019-04-05T20:44:50.042Z,43.49
2019-04-05T20:47:21.425Z,44.54
2019-04-05T20:49:52.794Z,43.89
2019-04-05T20:52:24.153Z,43.95
2019-04-05T20:54:55.534Z,43.96
2019-04-05T20:57:26.892Z,43.88
2019-04-05T20:59:58.217Z,43.94
2019-04-05T21:02:29.570Z,44.09
2019-04-05T21:05:00.873Z,43.81
2019-04-05T21:07:33.532Z,44.12
2019-04-05T21:10:06.899Z,44.01
2019-04-05T21:12:38.179Z,43.80
2019-04-05T21:15:09.596Z,44.10
2019-04-05T21:17:40.924Z,44.00
2019-04-05T21:20:12.250Z,44.77
2019-04-05T21:22:43.581Z,44.36
2019-04-05T21:25:14.935Z,44.54
2019-04-05T21:27:46.337Z,44.44
2019-04-05T21:30:17.754Z,44.49
2019-04-05T21:32:49.031Z,45.24
2019-04-05T21:35:20.523Z,45.55
2019-04-05T21:37:52.130Z,45.76
2019-04-05T21:40:23.704Z,45.56
2019-04-05T21:42:55.268Z,45.15
2019-04-05T21:45:26.822Z,45.31
2019-04-05T21:47:58.430Z,45.55
2019-04-05T21:50:30.042Z,45.26
2019-04-05T21:53:01.609Z,44.52
2019-04-05T21:55:35.466Z,44.80
2019-04-05T21:58:07.014Z,45.03
2019-04-05T22:00:42.907Z,44.76
2019-04-05T22:03:15.980Z,44.68
2019-04-05T22:05:47.648Z,44.85
2019-04-05T22:08:20.574Z,45.04
2019-04-05T22:10:52.127Z,45.55
2019-04-05T22:13:23.821Z,46.02
2019-04-05T22:15:55.387Z,45.25
2019-04-05T22:18:26.937Z,44.82
2019-04-05T22:20:58.491Z,45.91
2019-04-05T22:23:30.064Z,45.73
2019-04-05T22:26:01.714Z,45.50
2019-04-05T22:28:33.266Z,45.49
2019-04-05T22:31:04.816Z,45.94
2019-04-05T22:33:36.336Z,46.75
2019-04-05T22:36:07.914Z,46.36
2019-04-05T22:38:39.500Z,45.89
2019-04-05T22:41:11.046Z,45.92
2019-04-05T22:43:42.593Z,45.58
2019-04-05T22:46:14.185Z,46.17
2019-04-05T22:48:45.749Z,47.07
2019-04-05T22:51:17.323Z,47.36
2019-04-05T22:53:48.938Z,47.42
2019-04-05T22:56:20.497Z,47.93
2019-04-05T22:58:52.063Z,47.34
2019-04-05T23:01:23.606Z,48.09
2019-04-05T23:03:55.212Z,47.56
2019-04-05T23:06:27.987Z,47.04
2019-04-05T23:08:59.528Z,47.58
2019-04-05T23:11:31.087Z,47.49
2019-04-05T23:14:02.619Z,47.40
2019-04-05T23:16:34.255Z,48.29
2019-04-05T23:19:05.826Z,48.12
2019-04-05T23:21:37.404Z,47.34
2019-04-05T23:24:08.950Z,47.21
2019-04-05T23:26:40.525Z,46.28
2019-04-05T23:29:12.089Z,46.99
2019-04-05T23:31:43.640Z,46.64
2019-04-05T23:34:15.387Z,47.14
2019-04-05T23:36:46.952Z,46.91
2019-04-05T23:39:18.496Z,47.05
2019-04-05T23:41:50.038Z,47.17
2019-04-05T23:44:21.624Z,47.44
2019-04-05T23:46:53.209Z,48.18
2019-04-05T23:49:24.701Z,47.85
2019-04-05T23:51:57.285Z,47.65
2019-04-05T23:54:28.842Z,47.35
2019-04-05T23:57:00.385Z,46.87
2019-04-05T23:59:31.929Z,46.64
